Time;durP1;ratioP1;P1;durP2;ratioP2;P2;SDS_P1;SDS_P2;PMS_P1;PMS_P2;Temp;Humidity;BMP_temperature;BMP_pressure;BME280_temperature;BME280_humidity;BME280_pressure;Samples;Min_cycle;Max_cycle;Signal;HPM_P1;HPM_P2
2021/06/30 00:02:42;;;;;;;4.25;0.57;;;23.40;99.90;;;;;;20904640;28;20678;-66
2021/06/30 00:12:50;;;;;;;0.30;0.20;;;23.30;99.90;;;;;;20902461;28;20231;-66
2021/06/30 00:23:00;;;;;;;0.20;0.10;;;23.30;99.90;;;;;;20870488;28;20633;-66
2021/06/30 00:33:09;;;;;;;0.35;0.35;;;23.20;99.90;;;;;;20836149;28;20611;-66
2021/06/30 00:43:20;;;;;;;0.20;0.10;;;23.40;99.90;;;;;;20901468;28;20251;-66
2021/06/30 00:53:29;;;;;;;0.30;0.10;;;23.20;99.90;;;;;;20882883;28;20609;-67
2021/06/30 01:03:39;;;;;;;1.55;0.30;;;23.30;99.90;;;;;;20900731;28;20690;-66
2021/06/30 01:13:48;;;;;;;0.80;0.50;;;23.40;99.90;;;;;;20899827;28;20304;-66
2021/06/30 01:23:58;;;;;;;1.17;1.08;;;23.40;99.90;;;;;;20859563;28;20276;-66
2021/06/30 01:34:06;;;;;;;1.90;0.70;;;23.10;99.90;;;;;;20841450;28;20256;-66
2021/06/30 01:44:16;;;;;;;2.60;0.50;;;22.70;99.90;;;;;;20901539;28;20669;-67
2021/06/30 01:54:25;;;;;;;0.77;0.50;;;23.00;99.90;;;;;;20914228;28;20213;-66
2021/06/30 02:04:35;;;;;;;0.30;0.30;;;23.20;99.90;;;;;;20914232;28;20586;-66
2021/06/30 02:14:43;;;;;;;1.27;1.17;;;22.70;99.90;;;;;;20912560;28;20713;-67
2021/06/30 02:24:56;;;;;;;2.00;0.77;;;22.30;99.90;;;;;;20864168;28;20285;-66
2021/06/30 02:35:06;;;;;;;3.17;0.73;;;22.10;99.90;;;;;;20861449;28;20240;-67
2021/06/30 02:45:18;;;;;;;0.40;0.30;;;22.00;99.90;;;;;;20909639;28;20205;-68
2021/06/30 02:55:27;;;;;;;1.10;0.50;;;21.80;99.90;;;;;;20908425;28;20238;-66
2021/06/30 03:05:37;;;;;;;0.60;0.60;;;21.70;99.90;;;;;;20907931;28;20221;-66
2021/06/30 03:15:45;;;;;;;2.57;0.30;;;21.60;99.90;;;;;;20907821;28;20221;-67
2021/06/30 03:25:55;;;;;;;0.33;0.33;;;22.20;99.90;;;;;;20850903;28;20194;-66
2021/06/30 03:36:05;;;;;;;0.30;0.23;;;22.70;99.90;;;;;;20864356;28;20224;-67
2021/06/30 03:46:15;;;;;;;0.60;0.53;;;22.80;99.90;;;;;;20904868;28;20190;-67
2021/06/30 03:56:25;;;;;;;0.20;0.10;;;22.70;99.90;;;;;;20905514;28;20599;-68
2021/06/30 04:06:37;;;;;;;0.20;0.20;;;22.70;99.90;;;;;;20885269;28;20263;-67
2021/06/30 04:16:46;;;;;;;0.70;0.30;;;22.80;99.90;;;;;;20901588;28;20235;-67
2021/06/30 04:26:56;;;;;;;0.20;0.10;;;22.90;99.90;;;;;;20836698;28;20190;-67
2021/06/30 04:37:05;;;;;;;2.63;0.27;;;22.90;99.90;;;;;;20855934;28;20304;-68
2021/06/30 04:47:14;;;;;;;6.73;0.70;;;22.90;99.90;;;;;;20816604;28;20198;-67
2021/06/30 04:57:23;;;;;;;0.40;0.30;;;23.10;99.90;;;;;;20817095;28;20312;-67
2021/06/30 05:07:33;;;;;;;0.30;0.30;;;23.10;99.90;;;;;;20815814;28;20300;-68
2021/06/30 05:17:41;;;;;;;0.20;0.20;;;23.20;99.90;;;;;;20819314;28;20226;-68
2021/06/30 05:27:51;;;;;;;0.47;0.23;;;23.20;99.90;;;;;;20831975;28;20198;-68
2021/06/30 05:38:00;;;;;;;1.23;1.00;;;23.00;99.90;;;;;;20831646;28;20253;-69
2021/06/30 05:48:10;;;;;;;1.63;0.70;;;23.20;99.90;;;;;;20830291;28;20197;-67
2021/06/30 05:58:19;;;;;;;0.27;0.23;;;23.40;99.90;;;;;;20828491;28;20216;-66
2021/06/30 06:08:30;;;;;;;1.00;0.90;;;23.30;99.90;;;;;;20828316;28;20743;-67
2021/06/30 06:18:39;;;;;;;1.55;0.70;;;23.40;99.90;;;;;;20827960;28;20232;-66
2021/06/30 06:28:49;;;;;;;1.20;0.75;;;23.40;99.90;;;;;;20824624;28;20617;-67
2021/06/30 06:38:58;;;;;;;0.28;0.17;;;23.90;99.90;;;;;;20822198;28;20604;-68
2021/06/30 06:49:09;;;;;;;1.23;1.15;;;23.90;99.90;;;;;;20824128;28;20240;-68
2021/06/30 06:59:17;;;;;;;0.68;0.68;;;24.00;99.90;;;;;;20804004;28;20759;-66
2021/06/30 07:09:27;;;;;;;1.60;0.77;;;24.20;99.90;;;;;;20820667;28;20249;-67
2021/06/30 07:19:36;;;;;;;0.28;0.28;;;24.20;99.90;;;;;;20820268;28;20221;-66
2021/06/30 07:29:46;;;;;;;0.75;0.47;;;24.30;99.90;;;;;;20821228;28;20252;-67
2021/06/30 07:39:54;;;;;;;0.57;0.30;;;24.20;99.90;;;;;;20803501;28;20612;-67
2021/06/30 07:50:05;;;;;;;0.68;0.63;;;24.20;99.90;;;;;;20803389;28;20245;-67
2021/06/30 08:00:10;;;;;;;0.20;0.13;;;24.30;99.90;;;;;;20780209;28;20226;-66
2021/06/30 08:10:16;;;;;;;3.22;0.90;;;24.60;99.90;;;;;;20793231;28;20183;-67
2021/06/30 08:20:19;;;;;;;0.22;0.22;;;24.60;99.90;;;;;;20744195;28;20321;-66
2021/06/30 08:30:25;;;;;;;5.55;0.95;;;24.80;99.90;;;;;;20815647;28;20218;-66
2021/06/30 08:40:28;;;;;;;0.85;0.40;;;25.00;99.90;;;;;;20815946;28;20217;-67
2021/06/30 08:50:35;;;;;;;15.75;0.63;;;25.00;99.90;;;;;;20814608;28;20285;-67
2021/06/30 09:00:40;;;;;;;0.22;0.22;;;25.00;99.90;;;;;;20795992;28;20606;-66
2021/06/30 09:10:46;;;;;;;0.35;0.35;;;25.20;99.90;;;;;;20796758;28;20202;-66
2021/06/30 09:20:50;;;;;;;1.45;0.47;;;25.60;99.90;;;;;;20814408;28;20309;-66
2021/06/30 09:31:00;;;;;;;0.65;0.35;;;25.60;99.90;;;;;;20813571;28;20198;-67
2021/06/30 09:41:06;;;;;;;0.52;0.30;;;25.30;99.90;;;;;;20792717;28;20228;-66
2021/06/30 09:51:18;;;;;;;1.35;0.90;;;25.20;99.90;;;;;;20793079;28;20612;-67
2021/06/30 10:01:22;;;;;;;0.38;0.38;;;25.30;99.90;;;;;;20793245;28;20233;-68
2021/06/30 10:11:28;;;;;;;1.13;0.38;;;24.80;99.90;;;;;;20823308;28;20198;-67
2021/06/30 10:21:32;;;;;;;1.20;1.00;;;25.20;99.90;;;;;;20788546;28;20688;-67
2021/06/30 10:31:38;;;;;;;0.40;0.20;;;25.90;99.90;;;;;;20744047;28;20539;-66
2021/06/30 10:41:45;;;;;;;0.75;0.38;;;26.00;99.90;;;;;;20744644;28;20624;-65
2021/06/30 10:51:51;;;;;;;0.98;0.57;;;26.70;99.90;;;;;;20769554;28;20699;-65
2021/06/30 11:02:14;;;;;;;2.92;0.50;;;26.60;99.90;;;;;;20761103;28;20766;-66
2021/06/30 11:12:19;;;;;;;1.52;1.42;;;26.00;99.90;;;;;;20736676;28;20285;-66
2021/06/30 11:22:31;;;;;;;0.20;0.20;;;26.80;99.90;;;;;;20767309;28;20225;-67
2021/06/30 11:32:47;;;;;;;0.65;0.65;;;26.60;99.90;;;;;;20803456;28;20276;-67
2021/06/30 11:42:55;;;;;;;0.90;0.77;;;26.00;99.90;;;;;;20853448;28;20703;-64
2021/06/30 11:53:00;;;;;;;1.98;1.13;;;26.20;99.90;;;;;;20840277;28;20202;-65
2021/06/30 12:03:05;;;;;;;1.20;1.10;;;27.60;99.90;;;;;;20815506;28;20229;-65
2021/06/30 12:13:12;;;;;;;0.63;0.60;;;27.50;99.90;;;;;;20815140;28;20224;-64
2021/06/30 12:23:18;;;;;;;3.20;2.03;;;28.00;99.90;;;;;;20809841;28;20264;-66
2021/06/30 12:33:23;;;;;;;0.30;0.20;;;29.60;99.90;;;;;;20762385;28;20194;-65
2021/06/30 12:43:27;;;;;;;1.63;1.13;;;31.10;99.90;;;;;;20790125;28;20272;-65
2021/06/30 12:53:36;;;;;;;5.07;1.50;;;31.80;99.90;;;;;;20796032;28;20230;-64
2021/06/30 13:03:48;;;;;;;1.00;0.77;;;32.30;99.90;;;;;;20794644;28;20585;-65
2021/06/30 13:13:57;;;;;;;3.70;1.48;;;32.50;99.90;;;;;;20812235;28;20205;-65
2021/06/30 13:24:14;;;;;;;0.70;0.50;;;31.70;99.90;;;;;;20811683;28;20256;-65
2021/06/30 13:34:22;;;;;;;3.22;0.57;;;31.50;99.90;;;;;;20814256;28;20580;-65
2021/06/30 13:44:27;;;;;;;0.70;0.70;;;33.00;99.90;;;;;;20824731;28;20348;-65
2021/06/30 13:54:32;;;;;;;2.90;0.55;;;33.00;99.90;;;;;;20829491;28;20182;-65
2021/06/30 14:04:36;;;;;;;1.10;0.70;;;31.30;99.90;;;;;;20810047;28;20222;-64
2021/06/30 14:14:41;;;;;;;0.65;0.50;;;30.60;99.90;;;;;;20809717;28;20217;-65
2021/06/30 14:24:45;;;;;;;4.82;1.25;;;32.60;99.90;;;;;;20826378;28;20194;-66
2021/06/30 14:34:50;;;;;;;4.72;2.22;;;33.00;99.90;;;;;;20825251;28;20225;-65
2021/06/30 14:44:54;;;;;;;0.98;0.77;;;33.70;99.90;;;;;;20821377;28;20233;-66
2021/06/30 14:54:59;;;;;;;1.38;1.02;;;34.10;99.90;;;;;;20806338;28;20190;-66
2021/06/30 15:05:03;;;;;;;1.83;0.52;;;34.40;99.90;;;;;;20823628;28;20526;-65
2021/06/30 15:15:09;;;;;;;0.85;0.65;;;33.30;99.90;;;;;;20803843;28;20265;-66
2021/06/30 15:25:14;;;;;;;0.40;0.38;;;32.50;99.90;;;;;;20802658;28;20293;-67
2021/06/30 15:35:19;;;;;;;0.82;0.70;;;33.80;99.90;;;;;;20819985;28;20246;-66
2021/06/30 15:45:22;;;;;;;0.47;0.47;;;33.70;99.90;;;;;;20819492;28;20237;-67
2021/06/30 15:55:28;;;;;;;0.60;0.50;;;33.60;99.90;;;;;;20818197;28;20312;-65
2021/06/30 16:05:31;;;;;;;0.68;0.45;;;33.70;99.90;;;;;;20814514;28;20349;-64
2021/06/30 16:15:37;;;;;;;4.00;1.38;;;33.90;99.90;;;;;;20811726;28;20232;-66
2021/06/30 16:26:00;;;;;;;4.00;1.05;;;33.00;99.90;;;;;;20814883;28;20190;-64
2021/06/30 16:36:06;;;;;;;0.60;0.60;;;32.20;99.90;;;;;;20796839;28;20256;-65
2021/06/30 16:46:10;;;;;;;1.50;0.95;;;32.40;99.90;;;;;;20792131;28;20198;-67
2021/06/30 16:56:16;;;;;;;2.13;0.82;;;32.60;99.90;;;;;;20792703;28;20336;-66
2021/06/30 17:06:20;;;;;;;0.65;0.38;;;31.70;99.90;;;;;;20812757;28;20218;-68
2021/06/30 17:16:26;;;;;;;5.05;0.73;;;31.80;99.90;;;;;;20817182;28;20218;-69
2021/06/30 17:26:30;;;;;;;1.48;1.00;;;31.40;99.90;;;;;;20768278;28;20269;-67
2021/06/30 17:36:36;;;;;;;2.35;0.70;;;31.30;99.90;;;;;;20745606;28;20261;-69
2021/06/30 17:46:39;;;;;;;0.73;0.73;;;30.50;99.90;;;;;;20755533;28;20248;-67
2021/06/30 17:56:53;;;;;;;5.25;0.80;;;30.80;99.90;;;;;;20775433;28;20225;-67
2021/06/30 18:06:57;;;;;;;2.08;1.05;;;30.20;99.90;;;;;;20814804;28;20225;-67
2021/06/30 18:17:03;;;;;;;1.83;0.85;;;29.80;99.90;;;;;;20803502;28;20288;-66
2021/06/30 18:27:07;;;;;;;1.17;0.68;;;29.40;99.90;;;;;;20797837;28;20681;-65
2021/06/30 18:37:12;;;;;;;0.95;0.55;;;29.50;99.90;;;;;;20819134;28;20313;-66
2021/06/30 18:47:16;;;;;;;1.27;0.45;;;29.50;99.90;;;;;;20818999;28;20212;-66
2021/06/30 18:57:22;;;;;;;1.17;0.60;;;28.50;99.90;;;;;;20817364;28;20237;-67
2021/06/30 19:07:26;;;;;;;1.50;0.82;;;27.30;99.90;;;;;;20818297;28;20218;-67
2021/06/30 19:17:31;;;;;;;0.63;0.40;;;26.10;99.90;;;;;;20778740;28;20218;-66
2021/06/30 19:27:37;;;;;;;0.95;0.88;;;25.30;99.90;;;;;;20734127;28;20227;-66
2021/06/30 19:37:42;;;;;;;0.35;0.30;;;25.00;99.90;;;;;;20762446;28;20244;-66
2021/06/30 19:47:46;;;;;;;0.63;0.52;;;24.90;99.90;;;;;;20760415;28;20545;-66
2021/06/30 19:57:51;;;;;;;1.05;0.95;;;24.60;99.90;;;;;;20773325;28;20309;-66
2021/06/30 20:07:55;;;;;;;1.17;1.08;;;24.80;99.90;;;;;;20810969;28;20218;-65
2021/06/30 20:18:01;;;;;;;0.70;0.45;;;24.70;99.90;;;;;;20817794;28;20726;-65
2021/06/30 20:28:05;;;;;;;1.48;1.05;;;24.70;99.90;;;;;;20814724;28;20499;-65
2021/06/30 20:38:11;;;;;;;6.43;1.75;;;24.70;99.90;;;;;;20812042;28;20225;-66
2021/06/30 20:48:15;;;;;;;2.25;0.63;;;24.70;99.90;;;;;;20810764;28;20296;-66
2021/06/30 20:58:24;;;;;;;6.72;3.65;;;24.60;99.90;;;;;;20811502;28;20228;-66
2021/06/30 21:08:28;;;;;;;1.27;0.60;;;24.60;99.90;;;;;;20792598;28;20217;-66
2021/06/30 21:18:34;;;;;;;7.53;0.93;;;24.20;99.90;;;;;;20789193;28;20698;-65
2021/06/30 21:28:49;;;;;;;1.67;1.20;;;24.10;99.90;;;;;;20791176;28;20202;-65
2021/06/30 21:38:55;;;;;;;2.30;1.13;;;24.10;99.90;;;;;;20826508;28;20232;-66
2021/06/30 21:48:58;;;;;;;0.73;0.20;;;24.00;99.90;;;;;;20813772;28;20221;-65
2021/06/30 21:59:05;;;;;;;1.33;0.60;;;23.80;99.90;;;;;;20815762;28;20226;-65
2021/06/30 22:09:09;;;;;;;6.32;1.33;;;23.80;99.90;;;;;;20828925;28;20695;-66
2021/06/30 22:19:14;;;;;;;1.07;0.67;;;23.50;99.90;;;;;;20828357;28;20312;-65
2021/06/30 22:29:18;;;;;;;0.87;0.53;;;23.30;99.90;;;;;;20828210;28;20281;-65
2021/06/30 22:39:23;;;;;;;0.83;0.47;;;23.20;99.90;;;;;;20826580;28;20264;-64
2021/06/30 22:49:27;;;;;;;0.30;0.23;;;23.30;99.90;;;;;;20804927;28;20670;-64
2021/06/30 22:59:32;;;;;;;2.77;0.50;;;23.30;99.90;;;;;;20803513;28;20660;-65
2021/06/30 23:09:36;;;;;;;3.80;0.50;;;23.30;99.90;;;;;;20801004;28;20198;-64
2021/06/30 23:19:41;;;;;;;3.22;1.02;;;23.40;99.90;;;;;;20756775;28;20223;-64
2021/06/30 23:29:45;;;;;;;0.75;0.30;;;23.50;99.90;;;;;;20731041;28;20227;-67
2021/06/30 23:39:50;;;;;;;1.25;0.47;;;23.60;99.90;;;;;;20741931;28;20219;-66
2021/06/30 23:49:53;;;;;;;4.47;0.40;;;23.80;99.90;;;;;;20707976;28;20230;-65
2021/06/30 23:59:59;;;;;;;0.82;0.60;;;24.20;99.90;;;;;;20745704;28;20237;-67
